Time;durP1;ratioP1;P1;durP2;ratioP2;P2;SDS_P1;SDS_P2;PMS_P1;PMS_P2;Temp;Humidity;BMP_temperature;BMP_pressure;BME280_temperature;BME280_humidity;BME280_pressure;Samples;Min_cycle;Max_cycle;Signal;HPM_P1;HPM_P2
2022/12/15 00:41:00;;;;;;;22.40;10.82;;;-3.00;99.90;;;;;;5070834;28;20052;-69
2022/12/15 00:43:30;;;;;;;22.90;11.02;;;-3.00;99.90;;;;;;5069096;28;20566;-72
2022/12/15 00:48:41;;;;;;;21.80;10.25;;;-2.90;99.90;;;;;;5070604;28;20088;-69
2022/12/15 00:51:07;;;;;;;22.75;12.15;;;-3.00;99.90;;;;;;5070687;28;20052;-69
2022/12/15 01:21:01;;;;;;;17.55;9.80;;;-3.10;99.90;;;;;;5070432;28;20040;-71
2022/12/15 01:23:27;;;;;;;19.67;10.65;;;-3.00;99.90;;;;;;5068741;28;20052;-70
2022/12/15 01:25:53;;;;;;;23.90;10.23;;;-3.10;99.90;;;;;;5068229;28;20045;-70
2022/12/15 01:28:22;;;;;;;21.08;10.82;;;-3.10;99.90;;;;;;5070073;28;20089;-70
2022/12/15 01:30:48;;;;;;;22.70;10.63;;;-3.10;99.90;;;;;;5070199;28;20377;-70
2022/12/15 01:33:15;;;;;;;19.85;10.38;;;-3.20;99.90;;;;;;5068833;28;20055;-69
2022/12/15 01:35:41;;;;;;;19.02;10.68;;;-3.20;99.90;;;;;;5068392;28;20040;-70
2022/12/15 01:38:07;;;;;;;23.48;10.88;;;-3.30;99.90;;;;;;5069928;28;20123;-71
2022/12/15 01:40:45;;;;;;;22.27;11.10;;;-3.30;99.90;;;;;;5070209;28;20178;-70
2022/12/15 01:43:18;;;;;;;19.85;10.20;;;-3.40;99.90;;;;;;5068642;28;20045;-70
2022/12/15 01:45:52;;;;;;;19.77;10.07;;;-3.30;99.90;;;;;;5051656;28;20405;-70
2022/12/15 01:48:40;;;;;;;23.25;10.98;;;-3.30;99.90;;;;;;5068705;28;20048;-70
2022/12/15 01:51:21;;;;;;;22.50;11.25;;;-3.20;99.90;;;;;;5072586;28;20392;-69
2022/12/15 01:53:53;;;;;;;25.27;11.02;;;-3.30;99.90;;;;;;5072847;28;20044;-71
2022/12/15 01:56:19;;;;;;;27.88;11.00;;;-3.20;99.90;;;;;;5072364;28;20044;-72
2022/12/15 01:58:48;;;;;;;22.52;11.63;;;-3.20;99.90;;;;;;5072139;28;20512;-70
2022/12/15 02:01:13;;;;;;;19.63;9.95;;;-3.30;99.90;;;;;;5073465;28;20396;-69
2022/12/15 02:03:41;;;;;;;17.50;10.85;;;-3.20;99.90;;;;;;5071839;28;20115;-74
2022/12/15 02:06:08;;;;;;;17.85;9.68;;;-3.30;99.90;;;;;;5073153;28;20056;-71
2022/12/15 02:08:35;;;;;;;17.98;9.23;;;-3.10;99.90;;;;;;5071894;28;20044;-70
2022/12/15 02:11:26;;;;;;;21.45;10.60;;;-3.20;99.90;;;;;;5072060;28;20051;-69
2022/12/15 02:13:59;;;;;;;16.58;9.73;;;-3.20;99.90;;;;;;5071053;28;20432;-69
2022/12/15 02:16:37;;;;;;;20.60;9.90;;;-3.10;99.90;;;;;;5073293;28;20151;-69
2022/12/15 02:19:23;;;;;;;27.40;10.48;;;-3.10;99.90;;;;;;5073153;28;20365;-70
2022/12/15 02:22:07;;;;;;;21.52;10.30;;;-3.00;99.90;;;;;;5073159;28;20382;-70
2022/12/15 02:24:50;;;;;;;16.83;9.27;;;-3.00;99.90;;;;;;5070852;28;20056;-71
2022/12/15 02:27:33;;;;;;;17.73;9.35;;;-3.00;99.90;;;;;;5071971;28;20091;-71
2022/12/15 02:30:13;;;;;;;16.65;9.55;;;-3.00;99.90;;;;;;5071875;28;20102;-69
2022/12/15 02:33:17;;;;;;;16.48;9.32;;;-3.10;99.90;;;;;;5071681;28;20049;-70
2022/12/15 02:35:58;;;;;;;20.90;9.85;;;-3.10;99.90;;;;;;5071002;28;20048;-70
2022/12/15 02:38:34;;;;;;;22.42;10.20;;;-3.10;99.90;;;;;;5071447;28;20036;-70
2022/12/15 02:41:01;;;;;;;17.95;9.45;;;-3.10;99.90;;;;;;5071550;28;20156;-68
2022/12/15 02:43:31;;;;;;;17.80;10.38;;;-3.10;99.90;;;;;;5072547;28;20040;-70
2022/12/15 02:46:15;;;;;;;22.88;10.00;;;-3.10;99.90;;;;;;5070887;28;20040;-69
2022/12/15 02:49:00;;;;;;;17.63;10.05;;;-3.10;99.90;;;;;;5072563;28;20044;-70
2022/12/15 02:52:02;;;;;;;22.30;10.70;;;-3.10;99.90;;;;;;5071326;28;20090;-70
2022/12/15 02:54:57;;;;;;;19.53;8.93;;;-3.00;99.90;;;;;;5070744;28;20048;-70
2022/12/15 02:57:44;;;;;;;16.90;9.35;;;-2.90;99.90;;;;;;5072341;28;20293;-70
2022/12/15 03:00:11;;;;;;;17.67;9.63;;;-3.00;99.90;;;;;;5070761;28;20036;-70
2022/12/15 03:02:45;;;;;;;19.90;9.18;;;-2.90;99.90;;;;;;5070337;28;20115;-70
2022/12/15 03:05:12;;;;;;;16.13;8.43;;;-2.90;99.90;;;;;;5071585;28;20037;-70
2022/12/15 03:07:38;;;;;;;17.05;10.38;;;-2.90;99.90;;;;;;5070914;28;20044;-70
2022/12/15 03:10:05;;;;;;;17.25;9.50;;;-2.90;99.90;;;;;;5072117;28;20047;-70
2022/12/15 03:12:31;;;;;;;19.40;9.65;;;-2.90;99.90;;;;;;5072066;28;20040;-70
2022/12/15 03:14:56;;;;;;;16.67;9.75;;;-2.90;99.90;;;;;;5069959;28;20041;-71
2022/12/15 03:17:22;;;;;;;13.40;8.70;;;-2.90;99.90;;;;;;5054336;28;20478;-70
2022/12/15 03:19:48;;;;;;;17.90;9.40;;;-2.90;99.90;;;;;;5054376;28;20049;-70
2022/12/15 03:22:13;;;;;;;18.25;9.40;;;-2.80;99.90;;;;;;5071884;28;20071;-70
2022/12/15 03:24:39;;;;;;;16.23;9.73;;;-2.80;99.90;;;;;;5069602;28;20055;-69
2022/12/15 03:27:04;;;;;;;18.15;10.02;;;-2.80;99.90;;;;;;5070377;28;20451;-71
2022/12/15 03:29:30;;;;;;;17.08;8.73;;;-2.80;99.90;;;;;;5053690;28;20036;-70
2022/12/15 03:31:56;;;;;;;16.77;9.40;;;-2.80;99.90;;;;;;5070380;28;20519;-69
2022/12/15 03:34:21;;;;;;;18.45;9.35;;;-2.80;99.90;;;;;;5053135;28;20051;-70
2022/12/15 03:36:47;;;;;;;15.13;9.40;;;-2.80;99.90;;;;;;5070268;28;20040;-70
2022/12/15 03:39:13;;;;;;;18.40;8.90;;;-2.80;99.90;;;;;;5071628;28;20047;-71
2022/12/15 03:41:40;;;;;;;13.85;8.35;;;-2.80;99.90;;;;;;5071513;28;20047;-70
2022/12/15 03:44:06;;;;;;;19.60;9.13;;;-2.90;99.90;;;;;;5070688;28;20048;-70
2022/12/15 03:46:31;;;;;;;22.25;9.13;;;-2.80;99.90;;;;;;5070123;28;20036;-70
2022/12/15 03:48:57;;;;;;;18.77;8.40;;;-2.80;99.90;;;;;;5070089;28;20072;-70
2022/12/15 03:51:23;;;;;;;17.38;9.48;;;-2.80;99.90;;;;;;5070050;28;20072;-70
2022/12/15 03:53:48;;;;;;;17.20;9.13;;;-2.80;99.90;;;;;;5069404;28;20807;-70
2022/12/15 03:56:15;;;;;;;17.00;9.18;;;-2.80;99.90;;;;;;5069884;28;20044;-69
2022/12/15 03:58:41;;;;;;;17.45;8.18;;;-2.70;99.90;;;;;;5071151;28;20071;-70
2022/12/15 04:01:26;;;;;;;16.33;9.75;;;-2.70;99.90;;;;;;5071225;28;20629;-69
2022/12/15 04:03:52;;;;;;;20.60;9.20;;;-2.80;99.90;;;;;;5069198;28;20036;-70
2022/12/15 04:06:18;;;;;;;16.05;8.77;;;-2.80;99.90;;;;;;5069665;28;20049;-71
2022/12/15 04:08:43;;;;;;;22.60;9.68;;;-2.80;99.90;;;;;;5053088;28;20072;-71
2022/12/15 04:11:09;;;;;;;15.77;8.73;;;-2.80;99.90;;;;;;5071016;28;20040;-69
2022/12/15 04:13:34;;;;;;;13.63;8.75;;;-2.80;99.90;;;;;;5052681;28;20052;-70
2022/12/15 04:16:02;;;;;;;17.33;8.85;;;-2.70;99.90;;;;;;5068910;28;20037;-70
2022/12/15 04:18:28;;;;;;;21.35;9.48;;;-2.70;99.90;;;;;;5070909;28;20040;-69
2022/12/15 04:20:54;;;;;;;15.65;9.52;;;-2.70;99.90;;;;;;5069556;28;20048;-69
2022/12/15 04:23:21;;;;;;;22.08;10.93;;;-2.80;99.90;;;;;;5070877;28;20055;-70
2022/12/15 05:31:51;;;;;;;17.48;8.98;;;-2.70;99.90;;;;;;5072760;28;20045;-70
2022/12/15 05:34:37;;;;;;;15.80;8.45;;;-2.70;99.90;;;;;;5072218;28;20045;-70
2022/12/15 05:37:04;;;;;;;16.67;9.30;;;-2.70;99.90;;;;;;5072330;28;20139;-70
2022/12/15 05:39:29;;;;;;;13.15;8.27;;;-2.60;99.90;;;;;;5072518;28;20098;-71
2022/12/15 05:41:55;;;;;;;17.90;9.00;;;-2.70;99.90;;;;;;5072451;28;20040;-69
2022/12/15 05:44:22;;;;;;;13.35;8.57;;;-2.80;99.90;;;;;;5073058;28;20155;-69
2022/12/15 05:46:48;;;;;;;15.10;8.30;;;-2.70;99.90;;;;;;5072404;28;20090;-70
2022/12/15 05:49:15;;;;;;;13.10;8.70;;;-2.70;99.90;;;;;;5073710;28;20032;-71
2022/12/15 05:51:43;;;;;;;18.98;9.20;;;-2.70;99.90;;;;;;5073668;28;20087;-69
2022/12/15 05:54:10;;;;;;;16.48;8.95;;;-2.70;99.90;;;;;;5071552;28;20119;-69
2022/12/15 05:56:36;;;;;;;14.63;8.45;;;-2.80;99.90;;;;;;5073713;28;20083;-69
2022/12/15 05:59:03;;;;;;;20.48;8.55;;;-2.80;99.90;;;;;;5073438;28;20143;-69
2022/12/15 06:01:30;;;;;;;15.63;8.40;;;-2.50;99.90;;;;;;5072176;28;20052;-69
2022/12/15 06:03:56;;;;;;;16.70;8.40;;;-2.70;99.90;;;;;;5054635;28;20040;-69
2022/12/15 06:06:22;;;;;;;13.90;7.85;;;-2.60;99.90;;;;;;5073444;28;20064;-70
2022/12/15 06:08:48;;;;;;;16.48;8.93;;;-2.70;99.90;;;;;;5071983;28;20155;-71
2022/12/15 06:11:16;;;;;;;16.35;8.50;;;-2.70;99.90;;;;;;5072369;28;20221;-71
2022/12/15 06:13:42;;;;;;;17.52;9.65;;;-2.60;99.90;;;;;;5071750;28;20048;-71
2022/12/15 06:16:17;;;;;;;17.30;9.07;;;-2.70;99.90;;;;;;5071634;28;20048;-71
2022/12/15 06:18:45;;;;;;;13.20;8.25;;;-2.60;99.90;;;;;;5073080;28;20451;-70
2022/12/15 06:21:13;;;;;;;13.18;7.93;;;-2.70;99.90;;;;;;5073155;28;20400;-69
2022/12/15 06:23:39;;;;;;;15.40;9.63;;;-2.90;99.90;;;;;;5071737;28;20129;-70
2022/12/15 06:26:09;;;;;;;16.05;7.90;;;-2.80;99.90;;;;;;5071193;28;20557;-69
2022/12/15 06:28:35;;;;;;;12.13;7.63;;;-2.90;99.90;;;;;;5071720;28;20048;-69
2022/12/15 06:31:03;;;;;;;16.70;9.00;;;-3.00;99.90;;;;;;5072009;28;20028;-69
2022/12/15 06:33:29;;;;;;;14.77;8.05;;;-2.90;99.90;;;;;;5055197;28;20392;-69
2022/12/15 06:35:55;;;;;;;14.32;7.65;;;-2.80;99.90;;;;;;5070927;28;20044;-69
2022/12/15 06:38:21;;;;;;;13.52;8.02;;;-2.90;99.90;;;;;;5072785;28;20050;-70
2022/12/15 06:41:00;;;;;;;14.85;8.52;;;-2.80;99.90;;;;;;5071562;28;20120;-69
2022/12/15 06:43:30;;;;;;;12.77;8.50;;;-2.80;99.90;;;;;;5072552;28;20404;-69
2022/12/15 06:45:55;;;;;;;15.73;8.18;;;-2.70;99.90;;;;;;5071913;28;20393;-69
2022/12/15 06:48:22;;;;;;;19.40;8.55;;;-2.80;99.90;;;;;;5054760;28;20051;-69
2022/12/15 06:50:48;;;;;;;13.63;8.45;;;-2.70;99.90;;;;;;5072734;28;20052;-70
2022/12/15 06:53:16;;;;;;;12.90;9.15;;;-2.80;99.90;;;;;;5071209;28;20086;-70
2022/12/15 06:55:42;;;;;;;17.02;8.95;;;-2.80;99.90;;;;;;5070820;28;20048;-69
2022/12/15 06:58:11;;;;;;;13.88;9.30;;;-2.70;99.90;;;;;;5072319;28;20044;-70
2022/12/15 07:00:37;;;;;;;16.08;8.52;;;-2.70;99.90;;;;;;5071257;28;20078;-69
2022/12/15 07:03:06;;;;;;;15.13;8.55;;;-2.70;99.90;;;;;;5070973;28;20055;-70
2022/12/15 07:05:31;;;;;;;15.13;8.20;;;-2.70;99.90;;;;;;5071593;28;20049;-70
2022/12/15 07:07:57;;;;;;;14.18;8.60;;;-2.70;99.90;;;;;;5070814;28;20051;-69
2022/12/15 07:10:22;;;;;;;14.45;7.93;;;-2.70;99.90;;;;;;5070821;28;20664;-70
2022/12/15 07:12:48;;;;;;;18.00;7.63;;;-2.70;99.90;;;;;;5070727;28;20051;-70
2022/12/15 07:15:14;;;;;;;17.15;8.50;;;-2.70;99.90;;;;;;5070110;28;20476;-69
2022/12/15 07:17:39;;;;;;;17.52;8.70;;;-2.70;99.90;;;;;;5070629;28;20130;-69
2022/12/15 07:20:06;;;;;;;14.38;8.55;;;-2.60;99.90;;;;;;5070722;28;20113;-69
2022/12/15 07:22:32;;;;;;;17.42;10.23;;;-2.60;99.90;;;;;;5070727;28;20535;-72
2022/12/15 07:24:57;;;;;;;14.13;8.57;;;-2.60;99.90;;;;;;5066505;28;20056;-74
2022/12/15 07:27:23;;;;;;;15.25;9.65;;;-2.60;99.90;;;;;;5059669;28;20048;-70
2022/12/15 07:29:49;;;;;;;16.70;8.48;;;-2.60;99.90;;;;;;5045140;28;20040;-69
2022/12/15 07:32:15;;;;;;;17.58;9.40;;;-2.60;99.90;;;;;;5066984;28;20072;-69
2022/12/15 07:34:41;;;;;;;12.85;7.60;;;-2.60;99.90;;;;;;5070809;28;20132;-70
2022/12/15 07:37:07;;;;;;;19.15;9.00;;;-2.60;99.90;;;;;;5066834;28;20048;-70
2022/12/15 07:39:32;;;;;;;15.68;8.48;;;-2.60;99.90;;;;;;5068457;28;20051;-70
2022/12/15 07:41:58;;;;;;;13.48;8.57;;;-2.70;99.90;;;;;;5071496;28;20401;-70
2022/12/15 07:44:24;;;;;;;16.77;9.98;;;-2.70;99.90;;;;;;5070653;28;20052;-71
2022/12/15 07:46:50;;;;;;;20.92;9.85;;;-2.70;99.90;;;;;;5071078;28;20178;-70
2022/12/15 07:49:16;;;;;;;15.07;9.02;;;-2.70;99.90;;;;;;5071410;28;20505;-69
2022/12/15 07:51:42;;;;;;;13.68;8.85;;;-2.70;99.90;;;;;;5070178;28;20040;-69
2022/12/15 07:54:10;;;;;;;17.55;9.13;;;-2.70;99.90;;;;;;5069261;28;20040;-70
2022/12/15 07:56:39;;;;;;;16.38;9.48;;;-2.80;99.90;;;;;;5069932;28;20083;-69
2022/12/15 07:59:05;;;;;;;16.85;9.98;;;-2.70;99.90;;;;;;5053150;28;20076;-69
2022/12/15 08:01:31;;;;;;;20.63;10.70;;;-2.60;99.90;;;;;;5071325;28;20112;-70
2022/12/15 08:03:57;;;;;;;18.52;9.93;;;-2.70;99.90;;;;;;5069018;28;20492;-69
2022/12/15 08:06:23;;;;;;;21.65;9.77;;;-2.70;99.90;;;;;;5069850;28;20036;-71
2022/12/15 08:08:49;;;;;;;15.75;8.80;;;-2.70;99.90;;;;;;5067657;28;20037;-69
2022/12/15 08:11:15;;;;;;;15.60;8.80;;;-2.60;99.90;;;;;;5061310;28;20068;-69
2022/12/15 08:13:43;;;;;;;19.27;9.25;;;-2.60;99.90;;;;;;5057914;28;20524;-69
2022/12/15 08:16:09;;;;;;;16.33;8.93;;;-2.70;99.90;;;;;;5062132;28;20047;-68
2022/12/15 08:18:35;;;;;;;16.33;9.85;;;-2.70;99.90;;;;;;5069593;28;20041;-68
2022/12/15 08:21:07;;;;;;;19.77;10.02;;;-2.70;99.90;;;;;;5052979;28;20037;-69
2022/12/15 08:23:33;;;;;;;18.20;9.03;;;-2.70;99.90;;;;;;5051578;28;20539;-69
2022/12/15 08:26:07;;;;;;;19.50;10.85;;;-2.60;99.90;;;;;;5052667;28;20762;-69
2022/12/15 08:28:37;;;;;;;22.77;9.98;;;-2.60;99.90;;;;;;5070886;28;20472;-68
2022/12/15 08:31:12;;;;;;;18.17;9.52;;;-2.50;99.90;;;;;;5071046;28;20072;-68
2022/12/15 08:33:38;;;;;;;20.60;10.60;;;-2.50;99.90;;;;;;5069658;28;20045;-69
2022/12/15 08:36:07;;;;;;;18.27;9.73;;;-2.50;99.90;;;;;;5068919;28;20443;-68
2022/12/15 08:38:34;;;;;;;22.98;10.18;;;-2.40;99.90;;;;;;5069573;28;20051;-68
2022/12/15 08:41:10;;;;;;;18.75;10.27;;;-2.50;99.90;;;;;;5069469;28;20086;-69
2022/12/15 08:43:36;;;;;;;23.30;10.38;;;-2.50;99.90;;;;;;5069435;28;20124;-68
2022/12/15 08:46:03;;;;;;;17.52;10.05;;;-2.50;99.90;;;;;;5070047;28;20079;-68
2022/12/15 08:48:28;;;;;;;18.58;9.85;;;-2.50;99.90;;;;;;5070749;28;20087;-68
2022/12/15 08:50:55;;;;;;;19.80;9.75;;;-2.30;99.90;;;;;;5070705;28;20075;-68
2022/12/15 08:53:21;;;;;;;20.75;9.10;;;-2.30;99.90;;;;;;5070777;28;20394;-68
2022/12/15 08:55:46;;;;;;;17.30;9.40;;;-2.30;99.90;;;;;;5068880;28;20075;-68
2022/12/15 08:58:12;;;;;;;18.33;9.95;;;-2.30;99.90;;;;;;5052611;28;20084;-69
2022/12/15 09:00:38;;;;;;;21.05;11.07;;;-2.30;99.90;;;;;;5072558;28;20101;-69
2022/12/15 09:03:04;;;;;;;24.25;12.20;;;-2.20;99.90;;;;;;5073470;28;20287;-68
2022/12/15 09:05:30;;;;;;;22.10;11.55;;;-2.10;99.90;;;;;;5072585;28;20674;-68
2022/12/15 09:07:57;;;;;;;19.73;10.88;;;-2.10;99.90;;;;;;5073384;28;20460;-69
2022/12/15 09:10:23;;;;;;;22.48;10.52;;;-2.00;99.90;;;;;;5074742;28;20055;-69
2022/12/15 09:12:49;;;;;;;19.45;10.20;;;-2.00;99.90;;;;;;5074539;28;20036;-68
2022/12/15 09:15:16;;;;;;;19.20;10.65;;;-2.00;99.90;;;;;;5072521;28;20048;-68
2022/12/15 09:17:41;;;;;;;17.92;10.52;;;-2.00;99.90;;;;;;5073161;28;20032;-68
2022/12/15 09:20:10;;;;;;;23.52;11.38;;;-2.00;99.90;;;;;;5073233;28;20447;-68
2022/12/15 09:22:35;;;;;;;20.95;11.38;;;-1.90;99.90;;;;;;5074361;28;20040;-68
2022/12/15 09:25:02;;;;;;;21.30;10.73;;;-1.90;99.90;;;;;;5072371;28;20040;-68
2022/12/15 09:27:29;;;;;;;23.02;10.85;;;-1.80;99.90;;;;;;5074307;28;20063;-68
2022/12/15 09:29:55;;;;;;;20.95;9.95;;;-1.80;99.90;;;;;;5074335;28;20048;-68
2022/12/15 09:32:21;;;;;;;19.17;10.73;;;-1.70;99.90;;;;;;5074281;28;20396;-69
2022/12/15 09:34:49;;;;;;;21.10;10.55;;;-1.80;99.90;;;;;;5072427;28;20123;-68
2022/12/15 09:37:14;;;;;;;16.88;9.88;;;-1.60;99.90;;;;;;5073977;28;20041;-68
2022/12/15 09:39:40;;;;;;;18.27;9.10;;;-1.60;99.90;;;;;;5072931;28;20097;-68
2022/12/15 09:42:26;;;;;;;18.85;10.75;;;-1.50;99.90;;;;;;5072726;28;20051;-68
2022/12/15 09:45:02;;;;;;;18.23;10.07;;;-1.40;99.90;;;;;;5071901;28;20047;-67
2022/12/15 09:47:41;;;;;;;17.00;9.48;;;-1.20;99.90;;;;;;5070173;28;20053;-70
2022/12/15 09:50:11;;;;;;;17.73;10.13;;;-1.20;99.90;;;;;;5070522;28;20040;-67
2022/12/15 09:52:52;;;;;;;21.15;11.43;;;-1.10;99.90;;;;;;5071281;28;20485;-70
2022/12/15 09:55:27;;;;;;;18.75;10.70;;;-1.00;99.90;;;;;;5072304;28;20037;-68
2022/12/15 09:58:12;;;;;;;16.05;9.25;;;-1.00;99.90;;;;;;5055448;28;20123;-68
2022/12/15 10:01:16;;;;;;;17.27;10.02;;;-0.90;99.90;;;;;;5055409;28;20037;-68
2022/12/15 10:03:58;;;;;;;16.50;9.10;;;-0.90;99.90;;;;;;5030524;28;20449;-68
2022/12/15 10:06:49;;;;;;;14.75;8.05;;;-0.70;99.90;;;;;;5014294;28;20497;-68
2022/12/15 10:09:21;;;;;;;16.83;9.38;;;-0.70;99.90;;;;;;5013876;28;20049;-68
2022/12/15 10:11:54;;;;;;;15.70;9.10;;;-0.80;99.90;;;;;;4996991;28;20061;-70
2022/12/15 10:14:36;;;;;;;17.75;9.77;;;-0.80;99.90;;;;;;4997143;28;20061;-68
2022/12/15 10:17:26;;;;;;;18.42;9.80;;;-0.70;99.90;;;;;;5028650;28;20054;-68
2022/12/15 10:20:06;;;;;;;20.00;9.73;;;-0.50;99.90;;;;;;5021908;28;20246;-68
2022/12/15 10:22:38;;;;;;;18.83;9.45;;;-0.60;99.90;;;;;;5014096;28;20103;-69
2022/12/15 10:25:25;;;;;;;16.75;9.32;;;-0.50;99.90;;;;;;5029497;28;20084;-69
2022/12/15 10:28:12;;;;;;;17.95;9.43;;;-0.60;99.90;;;;;;5013914;28;20072;-69
2022/12/15 10:30:49;;;;;;;19.63;9.68;;;-0.50;99.90;;;;;;5030705;28;20136;-69
2022/12/15 10:33:14;;;;;;;21.17;9.98;;;-0.50;99.90;;;;;;4995731;28;20136;-68
2022/12/15 10:35:42;;;;;;;20.10;9.90;;;-0.50;99.90;;;;;;5003086;28;20478;-68
2022/12/15 10:38:33;;;;;;;24.88;10.57;;;-0.50;99.90;;;;;;5010263;28;20054;-69
2022/12/15 10:41:02;;;;;;;24.45;11.07;;;-0.50;99.90;;;;;;5071449;28;20044;-69
2022/12/15 10:43:40;;;;;;;16.08;9.50;;;-0.40;99.90;;;;;;5072663;28;20131;-69
2022/12/15 10:46:21;;;;;;;16.40;9.63;;;-0.40;99.90;;;;;;5068792;28;20080;-70
2022/12/15 10:48:55;;;;;;;17.52;9.82;;;-0.40;99.90;;;;;;5073936;28;20048;-69
2022/12/15 10:51:24;;;;;;;16.58;10.32;;;-0.30;99.90;;;;;;5071766;28;20369;-71
2022/12/15 10:54:03;;;;;;;13.48;9.32;;;-0.30;99.90;;;;;;5070433;28;20054;-71
2022/12/15 10:56:30;;;;;;;20.23;9.82;;;-0.30;99.90;;;;;;5072317;28;20052;-69
2022/12/15 10:58:59;;;;;;;19.42;9.90;;;0.00;99.90;;;;;;5054540;28;20040;-69
2022/12/15 11:01:31;;;;;;;18.58;9.75;;;-0.10;99.90;;;;;;5072534;28;20054;-70
2022/12/15 11:03:56;;;;;;;20.17;9.35;;;0.00;99.90;;;;;;5070237;28;20120;-70
2022/12/15 11:06:25;;;;;;;14.57;9.40;;;0.00;99.90;;;;;;5070874;28;20115;-70
2022/12/15 11:08:54;;;;;;;14.82;9.20;;;0.10;99.90;;;;;;5070676;28;20037;-69
2022/12/15 11:14:44;;;;;;;16.75;9.95;;;0.10;99.90;;;;;;5076461;28;20052;-69
2022/12/15 11:17:21;;;;;;;21.48;10.98;;;0.10;99.90;;;;;;5092245;28;20048;-68
2022/12/15 11:20:02;;;;;;;16.20;9.95;;;0.20;99.90;;;;;;5067337;28;20037;-69
2022/12/15 11:22:36;;;;;;;17.90;9.77;;;0.30;99.90;;;;;;5060262;28;20041;-69
2022/12/15 11:25:35;;;;;;;20.10;10.45;;;0.30;99.90;;;;;;5060291;28;20045;-68
2022/12/15 11:28:08;;;;;;;19.60;10.43;;;0.30;99.90;;;;;;5055638;28;20051;-69
2022/12/15 11:30:41;;;;;;;14.88;9.13;;;0.40;99.90;;;;;;5050410;28;20052;-68
2022/12/15 11:33:08;;;;;;;16.90;9.35;;;0.40;99.90;;;;;;5051734;28;20536;-70
2022/12/15 11:36:11;;;;;;;20.35;8.80;;;0.50;99.90;;;;;;5042682;28;20040;-70
2022/12/15 11:39:06;;;;;;;16.42;9.10;;;0.50;99.90;;;;;;5069509;28;20037;-69
2022/12/15 11:42:17;;;;;;;17.73;8.65;;;0.60;99.90;;;;;;5068828;28;20079;-68
2022/12/15 11:44:45;;;;;;;16.33;9.10;;;0.60;99.90;;;;;;4976787;28;20050;-68
2022/12/15 11:47:27;;;;;;;16.73;9.20;;;0.70;99.90;;;;;;4998392;28;20038;-69
2022/12/15 11:50:22;;;;;;;17.08;9.90;;;0.70;99.90;;;;;;5026282;28;20067;-68
2022/12/15 11:53:07;;;;;;;19.65;9.23;;;0.70;99.90;;;;;;5060015;28;20051;-69
2022/12/15 11:55:58;;;;;;;17.58;9.30;;;0.80;99.90;;;;;;5059763;28;20040;-69
2022/12/15 11:58:34;;;;;;;14.68;9.60;;;0.70;99.90;;;;;;5052357;28;20486;-69
2022/12/15 12:01:47;;;;;;;21.17;9.93;;;0.80;99.90;;;;;;5052036;28;20511;-69
2022/12/15 12:04:29;;;;;;;16.75;9.45;;;0.70;99.90;;;;;;5059604;28;20048;-69
2022/12/15 12:07:11;;;;;;;20.70;10.68;;;0.70;99.90;;;;;;5068218;28;20116;-69
2022/12/15 12:09:55;;;;;;;20.08;10.95;;;0.70;99.90;;;;;;5071276;28;20514;-69
2022/12/15 12:12:28;;;;;;;21.88;10.55;;;0.70;99.90;;;;;;5071193;28;20103;-68
2022/12/15 12:15:03;;;;;;;25.80;11.20;;;0.80;99.90;;;;;;5069073;28;20048;-69
2022/12/15 12:17:38;;;;;;;21.10;12.02;;;0.80;99.90;;;;;;5069994;28;20393;-69
2022/12/15 12:20:17;;;;;;;19.55;10.68;;;0.80;99.90;;;;;;5069905;28;20058;-69
2022/12/15 12:23:01;;;;;;;22.48;11.73;;;0.80;99.90;;;;;;5071149;28;20170;-69
2022/12/15 12:25:29;;;;;;;19.35;11.13;;;0.70;99.90;;;;;;5069264;28;20127;-69
2022/12/15 12:27:59;;;;;;;23.83;11.32;;;0.70;99.90;;;;;;5070971;28;20036;-69
2022/12/15 12:30:30;;;;;;;24.70;11.75;;;0.70;99.90;;;;;;5069688;28;20052;-69
2022/12/15 12:33:22;;;;;;;25.65;11.75;;;0.70;99.90;;;;;;5069799;28;20641;-68
2022/12/15 12:35:56;;;;;;;20.25;12.07;;;0.70;99.90;;;;;;5064275;28;20052;-68
2022/12/15 12:38:27;;;;;;;21.73;12.50;;;0.70;99.90;;;;;;5070875;28;20463;-69
2022/12/15 12:41:06;;;;;;;22.42;11.95;;;0.70;99.90;;;;;;5069555;28;20041;-68
2022/12/15 12:43:34;;;;;;;22.08;13.40;;;0.70;99.90;;;;;;5069389;28;20049;-69
2022/12/15 12:46:25;;;;;;;22.15;12.35;;;0.70;99.90;;;;;;5069955;28;20043;-68
2022/12/15 12:49:12;;;;;;;25.13;13.98;;;0.80;99.90;;;;;;5053097;28;20518;-68
2022/12/15 12:51:40;;;;;;;18.85;10.60;;;0.80;99.90;;;;;;5070792;28;20505;-69
2022/12/15 12:54:36;;;;;;;21.58;11.57;;;0.80;99.90;;;;;;5070028;28;20048;-69
2022/12/15 12:57:11;;;;;;;23.58;12.10;;;0.90;99.90;;;;;;5070705;28;20037;-69
2022/12/15 12:59:42;;;;;;;19.50;11.98;;;0.90;99.90;;;;;;5070559;28;20090;-69
2022/12/15 13:02:14;;;;;;;18.60;11.45;;;0.90;99.90;;;;;;5069564;28;20062;-69
2022/12/15 13:04:59;;;;;;;22.92;12.45;;;1.00;99.90;;;;;;5069861;28;20063;-69
2022/12/15 13:07:33;;;;;;;23.65;12.25;;;1.00;99.90;;;;;;5067423;28;20094;-70
2022/12/15 13:10:08;;;;;;;21.05;11.10;;;1.10;99.90;;;;;;5068246;28;20478;-71
2022/12/15 13:12:52;;;;;;;24.17;12.32;;;1.10;99.90;;;;;;5067603;28;20455;-71
2022/12/15 13:15:27;;;;;;;20.00;12.02;;;1.20;99.90;;;;;;5049405;28;20048;-71
2022/12/15 13:18:05;;;;;;;28.10;12.27;;;1.30;99.90;;;;;;5049790;28;20052;-71
2022/12/15 13:20:34;;;;;;;22.35;12.80;;;1.30;99.90;;;;;;5047831;28;20044;-70
2022/12/15 13:23:18;;;;;;;22.90;12.65;;;1.30;99.90;;;;;;5047807;28;20040;-70
2022/12/15 13:26:04;;;;;;;21.90;12.35;;;1.40;99.90;;;;;;5047668;28;20102;-70
2022/12/15 13:28:37;;;;;;;24.40;12.27;;;1.40;99.90;;;;;;5038597;28;20075;-72
2022/12/15 13:31:22;;;;;;;26.58;12.65;;;1.30;99.90;;;;;;5048733;28;20045;-72
2022/12/15 13:33:54;;;;;;;20.35;12.88;;;1.30;99.90;;;;;;5048322;28;20055;-70
2022/12/15 13:36:38;;;;;;;20.00;11.50;;;1.40;99.90;;;;;;5048952;28;20128;-70
2022/12/15 13:39:26;;;;;;;21.30;12.07;;;1.50;99.90;;;;;;5050169;28;20053;-70
2022/12/15 13:42:01;;;;;;;17.63;10.68;;;1.50;99.90;;;;;;5048819;28;20068;-70
2022/12/15 13:44:36;;;;;;;23.33;11.23;;;1.60;99.90;;;;;;5048082;28;20040;-70
2022/12/15 13:47:24;;;;;;;19.77;12.15;;;1.70;99.90;;;;;;5052517;28;20131;-70
2022/12/15 13:50:20;;;;;;;27.23;11.95;;;1.70;99.90;;;;;;5053953;28;20383;-69
2022/12/15 13:52:50;;;;;;;21.38;11.48;;;1.70;99.90;;;;;;5053810;28;20124;-70
2022/12/15 13:55:24;;;;;;;22.85;11.93;;;1.70;99.90;;;;;;5051717;28;20092;-69
2022/12/15 13:58:14;;;;;;;21.95;11.88;;;1.70;99.90;;;;;;5052031;28;20095;-72
2022/12/15 14:00:49;;;;;;;21.40;12.15;;;1.80;99.90;;;;;;5052353;28;20041;-70
2022/12/15 14:03:15;;;;;;;27.88;12.55;;;1.80;99.90;;;;;;5052234;28;20044;-70
2022/12/15 14:05:52;;;;;;;23.77;13.55;;;1.70;99.90;;;;;;5051284;28;20044;-70
2022/12/15 14:08:19;;;;;;;25.75;13.13;;;1.80;99.90;;;;;;5035627;28;20037;-70
2022/12/15 14:11:00;;;;;;;24.88;12.98;;;1.70;99.90;;;;;;5053591;28;20051;-69
2022/12/15 14:13:35;;;;;;;29.58;13.68;;;1.70;99.90;;;;;;5051856;28;20041;-71
2022/12/15 14:16:14;;;;;;;25.33;14.60;;;1.70;99.90;;;;;;5051367;28;20064;-71
2022/12/15 14:18:43;;;;;;;29.02;14.85;;;1.60;99.90;;;;;;5051812;28;20041;-69
2022/12/15 14:21:20;;;;;;;23.67;13.68;;;1.70;99.90;;;;;;5051955;28;20121;-70
2022/12/15 14:23:46;;;;;;;27.42;14.55;;;1.70;99.90;;;;;;5052379;28;20044;-70
2022/12/15 14:26:14;;;;;;;30.77;15.80;;;1.60;99.90;;;;;;5053157;28;20494;-69
2022/12/15 14:28:45;;;;;;;27.58;16.55;;;1.60;99.90;;;;;;5051785;28;20084;-70
2022/12/15 14:31:19;;;;;;;26.93;15.20;;;1.40;99.90;;;;;;5053030;28;20073;-70
2022/12/15 14:33:48;;;;;;;26.67;15.02;;;1.40;99.90;;;;;;5051415;28;20107;-73
2022/12/15 14:36:16;;;;;;;28.63;15.77;;;1.40;99.90;;;;;;5051801;28;20548;-70
2022/12/15 14:39:00;;;;;;;32.05;16.15;;;1.40;99.90;;;;;;5035040;28;20098;-70
2022/12/15 14:41:36;;;;;;;27.45;15.45;;;1.40;99.90;;;;;;5051360;28;20045;-70
2022/12/15 14:44:07;;;;;;;32.63;15.65;;;1.30;99.90;;;;;;5052122;28;20056;-70
2022/12/15 14:46:32;;;;;;;26.20;14.65;;;1.30;99.90;;;;;;5051743;28;20132;-70
2022/12/15 14:49:02;;;;;;;29.77;15.35;;;1.30;99.90;;;;;;5051376;28;20131;-71
2022/12/15 14:51:29;;;;;;;25.77;15.07;;;1.20;99.90;;;;;;5051271;28;20040;-70
2022/12/15 14:53:55;;;;;;;30.75;15.40;;;1.20;99.90;;;;;;5050923;28;20045;-70
2022/12/15 14:56:22;;;;;;;23.17;14.27;;;1.20;99.90;;;;;;5051129;28;20047;-70
2022/12/15 14:59:03;;;;;;;29.02;14.18;;;1.10;99.90;;;;;;5051139;28;20063;-70
2022/12/15 15:01:40;;;;;;;32.30;15.57;;;1.10;99.90;;;;;;5052504;28;20045;-70
2022/12/15 15:04:20;;;;;;;29.30;15.27;;;1.20;99.90;;;;;;5051674;28;20048;-71
2022/12/15 15:06:52;;;;;;;28.33;15.27;;;1.10;99.90;;;;;;5052298;28;20102;-71
2022/12/15 15:09:37;;;;;;;29.13;15.52;;;1.10;99.90;;;;;;5034425;28;20036;-70
2022/12/15 15:12:06;;;;;;;27.65;13.68;;;1.10;99.90;;;;;;5034206;28;20041;-70
2022/12/15 15:14:53;;;;;;;27.70;14.10;;;1.00;99.90;;;;;;5060392;28;20672;-70
2022/12/15 15:17:33;;;;;;;27.45;14.43;;;1.00;99.90;;;;;;5068617;28;20066;-71
2022/12/15 15:20:05;;;;;;;25.17;13.55;;;1.00;99.90;;;;;;5055659;28;20049;-70
2022/12/15 15:22:42;;;;;;;26.55;14.88;;;0.90;99.90;;;;;;5059148;28;20042;-70